createdAt,value
2019-03-28T00:00:50.817Z,101966.54
2019-03-28T00:06:11.611Z,101967.21
2019-03-28T00:11:32.466Z,101969.05
2019-03-28T00:16:53.719Z,101967.61
2019-03-28T00:22:23.712Z,101962.57
2019-03-28T00:27:44.677Z,101958.41
2019-03-28T00:33:05.931Z,101959.70
2019-03-28T00:38:27.240Z,101957.92
2019-03-28T00:43:48.854Z,101953.84
2019-03-28T00:49:09.577Z,101946.57
2019-03-28T00:54:30.719Z,101950.59
2019-03-28T00:59:51.787Z,101950.98
2019-03-28T01:05:13.407Z,101948.18
2019-03-28T01:10:34.772Z,101945.75
2019-03-28T01:15:56.129Z,101950.42
2019-03-28T01:21:16.936Z,101952.91
2019-03-28T01:26:37.742Z,101961.17
2019-03-28T01:31:58.629Z,101952.56
2019-03-28T01:37:19.833Z,101958.20
2019-03-28T01:42:41.070Z,101954.70
2019-03-28T01:48:02.328Z,101948.20
2019-03-28T01:53:23.254Z,101951.38
2019-03-28T01:58:44.396Z,101943.48
2019-03-28T02:04:05.606Z,101943.34
2019-03-28T02:09:26.120Z,101946.44
2019-03-28T02:14:47.563Z,101942.70
2019-03-28T02:20:09.294Z,101949.42
2019-03-28T02:25:31.723Z,101948.30
2019-03-28T02:30:52.988Z,101946.72
2019-03-28T02:36:13.837Z,101947.57
2019-03-28T02:41:35.387Z,101945.45
2019-03-28T02:46:56.711Z,101947.57
2019-03-28T02:52:18.110Z,101948.63
2019-03-28T02:57:42.305Z,101951.52
2019-03-28T03:03:01.895Z,101946.81
2019-03-28T03:08:23.050Z,101952.77
2019-03-28T03:13:44.328Z,101956.17
2019-03-28T03:19:06.756Z,101964.41
2019-03-28T03:24:27.685Z,101959.67
2019-03-28T03:29:49.042Z,101961.86
2019-03-28T03:35:10.773Z,101971.58
2019-03-28T03:40:31.789Z,101974.31
2019-03-28T03:45:52.927Z,101980.09
2019-03-28T03:51:14.703Z,101980.58
2019-03-28T03:56:35.851Z,101985.22
2019-03-28T04:01:56.716Z,101988.10
2019-03-28T04:07:17.945Z,101981.69
2019-03-28T04:12:38.925Z,101975.98
2019-03-28T04:17:59.542Z,101981.27
2019-03-28T04:23:20.529Z,101990.56
2019-03-28T04:28:41.395Z,101996.19
2019-03-28T04:34:07.514Z,101997.04
2019-03-28T04:39:26.829Z,101999.80
2019-03-28T04:44:48.050Z,101996.19
2019-03-28T04:50:10.437Z,102004.21
2019-03-28T04:55:31.406Z,102013.36
2019-03-28T05:00:52.461Z,102002.06
2019-03-28T05:06:13.665Z,102005.70
2019-03-28T05:11:34.750Z,102013.03
2019-03-28T05:16:55.805Z,102013.09
2019-03-28T05:22:16.789Z,102015.41
2019-03-28T05:27:38.051Z,102026.47
2019-03-28T05:32:58.976Z,102024.50
2019-03-28T05:38:19.965Z,102021.85
2019-03-28T05:43:40.647Z,102025.02
2019-03-28T05:49:01.794Z,102022.19
2019-03-28T05:54:22.847Z,102028.45
2019-03-28T05:59:43.817Z,102032.31
2019-03-28T06:05:05.541Z,102030.64
2019-03-28T06:10:26.377Z,102038.19
2019-03-28T06:15:47.497Z,102037.77
2019-03-28T06:21:08.669Z,102043.84
2019-03-28T06:26:29.629Z,102049.86
2019-03-28T06:31:55.612Z,102051.72
2019-03-28T06:37:13.623Z,102069.39
2019-03-28T06:42:34.814Z,102068.74
2019-03-28T06:47:56.203Z,102068.81
2019-03-28T06:53:17.275Z,102077.35
2019-03-28T06:58:38.022Z,102072.84
2019-03-28T07:03:58.766Z,102078.47
2019-03-28T07:09:19.956Z,102069.51
2019-03-28T07:14:40.862Z,102074.16
2019-03-28T07:20:02.235Z,102080.91
2019-03-28T07:25:25.588Z,102076.20
2019-03-28T07:30:46.068Z,102070.80
2019-03-28T07:36:06.863Z,102082.02
2019-03-28T07:41:27.847Z,102083.25
2019-03-28T07:46:49.097Z,102073.13
2019-03-28T07:52:10.246Z,102071.29
2019-03-28T07:57:31.620Z,102070.49
2019-03-28T08:02:52.659Z,102064.48
2019-03-28T08:08:14.491Z,102067.05
2019-03-28T08:13:35.434Z,102072.72
2019-03-28T08:18:56.574Z,102072.95
2019-03-28T08:24:17.382Z,102075.70
2019-03-28T08:29:38.437Z,102074.27
2019-03-28T08:34:59.687Z,102077.36
2019-03-28T08:40:33.619Z,102080.05
2019-03-28T08:45:54.906Z,102090.16
2019-03-28T08:51:15.653Z,102094.67
2019-03-28T08:56:36.716Z,102104.00
2019-03-28T09:01:58.864Z,102104.42
2019-03-28T09:07:20.176Z,102101.87
2019-03-28T09:12:41.197Z,102110.55
2019-03-28T09:18:02.768Z,102110.28
2019-03-28T09:23:23.708Z,102114.70
2019-03-28T09:28:44.852Z,102117.97
2019-03-28T09:34:06.057Z,102108.33
2019-03-28T09:39:26.988Z,102109.69
2019-03-28T09:44:48.139Z,102098.47
2019-03-28T09:50:09.517Z,102097.73
2019-03-28T09:55:30.361Z,102096.88
2019-03-28T10:01:02.780Z,102104.34
2019-03-28T10:06:15.487Z,102096.53
2019-03-28T10:11:36.269Z,102085.73
2019-03-28T10:16:57.069Z,102084.89
2019-03-28T10:22:17.872Z,102085.02
2019-03-28T10:27:39.051Z,102087.33
2019-03-28T10:33:00.036Z,102088.16
2019-03-28T10:38:21.111Z,102082.53
2019-03-28T10:43:42.543Z,102079.09
2019-03-28T10:49:04.063Z,102078.65
2019-03-28T10:54:25.827Z,102082.59
2019-03-28T10:59:46.928Z,102079.11
2019-03-28T11:05:08.771Z,102079.58
2019-03-28T11:10:30.652Z,102083.59
2019-03-28T11:15:51.562Z,102084.49
2019-03-28T11:21:12.672Z,102080.25
2019-03-28T11:26:34.022Z,102077.48
2019-03-28T11:31:55.128Z,102081.69
2019-03-28T11:37:25.917Z,102070.29
2019-03-28T11:42:39.456Z,102089.05
2019-03-28T11:48:00.584Z,102087.31
2019-03-28T11:53:23.911Z,102080.87
2019-03-28T11:58:48.230Z,102080.67
2019-03-28T12:04:09.407Z,102077.45
2019-03-28T12:09:30.621Z,102064.38
2019-03-28T12:14:51.393Z,102069.10
2019-03-28T12:20:12.758Z,102064.70
2019-03-28T12:25:34.652Z,102065.13
2019-03-28T12:30:55.894Z,102071.66
2019-03-28T12:36:16.837Z,102072.10
2019-03-28T12:41:39.992Z,102072.09
2019-03-28T12:47:01.322Z,102077.95
2019-03-28T12:52:22.606Z,102087.73
2019-03-28T12:57:44.021Z,102080.00
2019-03-28T13:03:06.343Z,102081.97
2019-03-28T13:08:27.541Z,102079.23
2019-03-28T13:13:48.953Z,102080.97
2019-03-28T13:19:09.718Z,102089.24
2019-03-28T13:24:31.062Z,102081.11
2019-03-28T13:29:54.991Z,102082.73
2019-03-28T13:35:15.040Z,102081.15
2019-03-28T13:40:36.319Z,102084.03
2019-03-28T13:45:57.513Z,102080.58
2019-03-28T13:51:18.676Z,102088.39
2019-03-28T13:56:39.827Z,102083.42
2019-03-28T14:02:01.218Z,102079.88
2019-03-28T14:07:22.860Z,102079.38
2019-03-28T14:12:44.284Z,102072.27
2019-03-28T14:18:05.342Z,102080.84
2019-03-28T14:23:26.504Z,102083.53
2019-03-28T14:28:47.659Z,102081.84
2019-03-28T14:34:08.623Z,102087.75
2019-03-28T14:39:29.649Z,102082.36
2019-03-28T14:44:50.591Z,102089.77
2019-03-28T14:50:12.339Z,102090.70
2019-03-28T14:55:34.515Z,102098.08
2019-03-28T15:00:55.545Z,102094.03
2019-03-28T15:06:16.757Z,102098.13
2019-03-28T15:11:37.520Z,102101.86
2019-03-28T15:16:59.356Z,102100.82
2019-03-28T15:22:19.947Z,102099.80
2019-03-28T15:27:41.111Z,102103.61
2019-03-28T15:33:02.368Z,102101.22
2019-03-28T15:38:23.677Z,102099.02
2019-03-28T15:43:44.564Z,102091.88
2019-03-28T15:49:05.760Z,102089.62
2019-03-28T15:54:26.338Z,102093.00
2019-03-28T15:59:46.993Z,102094.80
2019-03-28T16:05:08.404Z,102086.99
2019-03-28T16:10:29.477Z,102094.51
2019-03-28T16:15:50.457Z,102090.20
2019-03-28T16:21:11.717Z,102091.95
2019-03-28T16:26:32.827Z,102098.19
2019-03-28T16:31:53.644Z,102097.94
2019-03-28T16:37:15.018Z,102093.66
2019-03-28T16:42:36.130Z,102099.78
2019-03-28T16:47:56.999Z,102100.73
2019-03-28T16:53:17.952Z,102098.69
2019-03-28T16:58:38.584Z,102100.38
2019-03-28T17:03:59.341Z,102098.30
2019-03-28T17:09:21.261Z,102100.63
2019-03-28T17:14:42.125Z,102100.73
2019-03-28T17:20:03.439Z,102103.92
2019-03-28T17:25:24.318Z,102110.89
2019-03-28T17:30:45.674Z,102112.23
2019-03-28T17:36:06.593Z,102121.33
2019-03-28T17:41:27.704Z,102127.19
2019-03-28T17:46:48.587Z,102129.73
2019-03-28T17:52:09.527Z,102133.51
2019-03-28T17:57:32.212Z,102135.45
2019-03-28T18:02:53.486Z,102140.61
2019-03-28T18:08:14.510Z,102145.00
2019-03-28T18:13:35.937Z,102150.62
2019-03-28T18:18:56.721Z,102155.13
2019-03-28T18:24:17.578Z,102161.59
2019-03-28T18:29:38.600Z,102171.73
2019-03-28T18:35:05.548Z,102172.70
2019-03-28T18:40:22.876Z,102178.53
2019-03-28T18:45:44.023Z,102190.84
2019-03-28T18:51:05.333Z,102193.28
2019-03-28T18:56:26.490Z,102188.48
2019-03-28T19:01:47.678Z,102187.62
2019-03-28T19:07:09.829Z,102194.08
2019-03-28T19:12:30.953Z,102198.59
2019-03-28T19:17:52.070Z,102205.77
2019-03-28T19:23:12.838Z,102202.72
2019-03-28T19:28:34.263Z,102198.70
2019-03-28T19:33:55.425Z,102206.52
2019-03-28T19:39:26.233Z,102207.02
2019-03-28T19:44:47.266Z,102200.89
2019-03-28T19:50:13.221Z,102199.91
2019-03-28T19:55:34.332Z,102197.72
2019-03-28T20:00:56.665Z,102190.88
2019-03-28T20:06:22.468Z,102197.13
2019-03-28T20:11:40.624Z,102202.70
2019-03-28T20:17:03.116Z,102211.37
2019-03-28T20:22:24.127Z,102202.59
2019-03-28T20:27:45.438Z,102207.21
2019-03-28T20:33:06.694Z,102210.13
2019-03-28T20:38:27.667Z,102209.41
2019-03-28T20:43:48.910Z,102211.86
2019-03-28T20:49:11.309Z,102207.41
2019-03-28T20:54:33.238Z,102208.75
2019-03-28T20:59:54.346Z,102214.28
2019-03-28T21:05:15.598Z,102217.78
2019-03-28T21:10:36.610Z,102221.18
2019-03-28T21:15:57.415Z,102228.74
2019-03-28T21:21:18.463Z,102231.82
2019-03-28T21:26:39.131Z,102231.42
2019-03-28T21:32:00.215Z,102230.84
2019-03-28T21:37:22.580Z,102231.33
2019-03-28T21:42:43.729Z,102222.66
2019-03-28T21:48:05.000Z,102224.13
2019-03-28T21:53:26.085Z,102218.14
2019-03-28T21:58:46.779Z,102216.66
2019-03-28T22:04:08.917Z,102207.27
2019-03-28T22:09:30.042Z,102204.03
2019-03-28T22:14:51.106Z,102204.59
2019-03-28T22:20:12.450Z,102212.87
2019-03-28T22:25:33.702Z,102206.16
2019-03-28T22:30:54.758Z,102202.09
2019-03-28T22:36:15.864Z,102207.86
2019-03-28T22:41:37.125Z,102200.75
2019-03-28T22:46:58.420Z,102200.48
2019-03-28T22:52:19.615Z,102194.05
2019-03-28T22:57:41.196Z,102199.50
2019-03-28T23:03:04.068Z,102196.10
2019-03-28T23:08:25.040Z,102196.69
2019-03-28T23:13:45.631Z,102203.07
2019-03-28T23:19:06.738Z,102207.32
2019-03-28T23:24:27.932Z,102205.81
2019-03-28T23:29:48.587Z,102208.26
2019-03-28T23:35:10.289Z,102211.17
2019-03-28T23:40:31.313Z,102221.05
2019-03-28T23:45:53.543Z,102220.20
2019-03-28T23:51:14.508Z,102211.97
2019-03-28T23:56:36.908Z,102223.78
